sensor_id;sensor_type;location;lat;lon;timestamp;P1;durP1;ratioP1;P2;durP2;ratioP2
66272;SDS011;58450;52.150;4.466;2022-12-26T00:00:43;23.20;;;14.23;;
66272;SDS011;58450;52.150;4.466;2022-12-26T00:03:11;21.77;;;13.63;;
66272;SDS011;58450;52.150;4.466;2022-12-26T00:05:41;21.77;;;12.80;;
66272;SDS011;58450;52.150;4.466;2022-12-26T00:08:08;19.77;;;12.10;;
66272;SDS011;58450;52.150;4.466;2022-12-26T00:10:36;21.00;;;12.25;;
66272;SDS011;58450;52.150;4.466;2022-12-26T00:13:03;21.80;;;12.45;;
66272;SDS011;58450;52.150;4.466;2022-12-26T00:15:31;20.27;;;12.63;;
66272;SDS011;58450;52.150;4.466;2022-12-26T00:17:58;19.20;;;11.98;;
66272;SDS011;58450;52.150;4.466;2022-12-26T00:20:26;17.70;;;11.15;;
66272;SDS011;58450;52.150;4.466;2022-12-26T00:22:55;17.80;;;10.30;;
66272;SDS011;58450;52.150;4.466;2022-12-26T00:25:22;16.73;;;10.65;;
66272;SDS011;58450;52.150;4.466;2022-12-26T00:27:50;19.02;;;10.82;;
66272;SDS011;58450;52.150;4.466;2022-12-26T00:30:18;16.88;;;9.85;;
66272;SDS011;58450;52.150;4.466;2022-12-26T00:32:45;14.80;;;9.65;;
66272;SDS011;58450;52.150;4.466;2022-12-26T00:35:13;17.25;;;10.85;;
66272;SDS011;58450;52.150;4.466;2022-12-26T00:37:40;17.58;;;11.18;;
66272;SDS011;58450;52.150;4.466;2022-12-26T00:40:10;20.25;;;11.60;;
66272;SDS011;58450;52.150;4.466;2022-12-26T00:42:38;18.70;;;11.43;;
66272;SDS011;58450;52.150;4.466;2022-12-26T00:45:06;20.00;;;12.68;;
66272;SDS011;58450;52.150;4.466;2022-12-26T00:47:34;19.45;;;12.68;;
66272;SDS011;58450;52.150;4.466;2022-12-26T00:50:02;22.67;;;12.75;;
66272;SDS011;58450;52.150;4.466;2022-12-26T00:52:30;20.45;;;11.80;;
66272;SDS011;58450;52.150;4.466;2022-12-26T00:54:57;20.73;;;12.52;;
66272;SDS011;58450;52.150;4.466;2022-12-26T00:57:26;20.55;;;11.00;;
66272;SDS011;58450;52.150;4.466;2022-12-26T00:59:54;19.15;;;11.73;;
66272;SDS011;58450;52.150;4.466;2022-12-26T01:02:21;19.83;;;11.93;;
66272;SDS011;58450;52.150;4.466;2022-12-26T01:05:04;21.42;;;12.43;;
66272;SDS011;58450;52.150;4.466;2022-12-26T01:07:33;20.20;;;11.70;;
66272;SDS011;58450;52.150;4.466;2022-12-26T01:10:02;18.90;;;11.70;;
66272;SDS011;58450;52.150;4.466;2022-12-26T01:12:33;18.73;;;11.45;;
66272;SDS011;58450;52.150;4.466;2022-12-26T01:15:00;22.55;;;13.43;;
66272;SDS011;58450;52.150;4.466;2022-12-26T01:17:28;23.42;;;15.57;;
66272;SDS011;58450;52.150;4.466;2022-12-26T01:19:56;25.90;;;16.08;;
66272;SDS011;58450;52.150;4.466;2022-12-26T01:22:24;25.67;;;16.30;;
66272;SDS011;58450;52.150;4.466;2022-12-26T01:24:53;26.38;;;15.50;;
66272;SDS011;58450;52.150;4.466;2022-12-26T01:27:21;25.67;;;15.68;;
66272;SDS011;58450;52.150;4.466;2022-12-26T01:29:52;27.25;;;15.90;;
66272;SDS011;58450;52.150;4.466;2022-12-26T01:32:21;26.73;;;15.70;;
66272;SDS011;58450;52.150;4.466;2022-12-26T01:34:49;25.63;;;15.20;;
66272;SDS011;58450;52.150;4.466;2022-12-26T01:37:20;27.20;;;15.80;;
66272;SDS011;58450;52.150;4.466;2022-12-26T01:39:48;23.70;;;14.77;;
66272;SDS011;58450;52.150;4.466;2022-12-26T01:42:17;26.98;;;15.35;;
66272;SDS011;58450;52.150;4.466;2022-12-26T01:44:55;26.40;;;14.57;;
66272;SDS011;58450;52.150;4.466;2022-12-26T01:47:33;25.88;;;14.85;;
66272;SDS011;58450;52.150;4.466;2022-12-26T01:50:13;27.33;;;15.93;;
66272;SDS011;58450;52.150;4.466;2022-12-26T01:52:58;24.38;;;14.65;;
66272;SDS011;58450;52.150;4.466;2022-12-26T01:55:35;26.08;;;14.20;;
66272;SDS011;58450;52.150;4.466;2022-12-26T01:58:06;26.80;;;15.30;;
66272;SDS011;58450;52.150;4.466;2022-12-26T02:00:41;25.25;;;15.02;;
66272;SDS011;58450;52.150;4.466;2022-12-26T02:03:09;25.38;;;15.68;;
66272;SDS011;58450;52.150;4.466;2022-12-26T02:05:56;29.48;;;15.85;;
66272;SDS011;58450;52.150;4.466;2022-12-26T02:08:27;25.42;;;15.55;;
66272;SDS011;58450;52.150;4.466;2022-12-26T02:11:02;27.23;;;16.35;;
66272;SDS011;58450;52.150;4.466;2022-12-26T02:13:40;26.63;;;15.90;;
66272;SDS011;58450;52.150;4.466;2022-12-26T02:16:10;23.40;;;13.80;;
66272;SDS011;58450;52.150;4.466;2022-12-26T02:18:41;22.33;;;14.02;;
66272;SDS011;58450;52.150;4.466;2022-12-26T02:27:45;22.48;;;13.57;;
66272;SDS011;58450;52.150;4.466;2022-12-26T02:30:39;24.40;;;15.23;;
66272;SDS011;58450;52.150;4.466;2022-12-26T02:33:28;25.70;;;15.55;;
66272;SDS011;58450;52.150;4.466;2022-12-26T02:36:13;25.35;;;15.80;;
66272;SDS011;58450;52.150;4.466;2022-12-26T02:39:06;26.40;;;14.85;;
66272;SDS011;58450;52.150;4.466;2022-12-26T02:41:52;21.92;;;14.10;;
66272;SDS011;58450;52.150;4.466;2022-12-26T02:44:36;24.23;;;15.13;;
66272;SDS011;58450;52.150;4.466;2022-12-26T02:47:34;23.55;;;14.75;;
66272;SDS011;58450;52.150;4.466;2022-12-26T02:50:12;22.48;;;14.02;;
66272;SDS011;58450;52.150;4.466;2022-12-26T02:53:15;23.05;;;13.43;;
66272;SDS011;58450;52.150;4.466;2022-12-26T02:56:13;23.35;;;13.65;;
66272;SDS011;58450;52.150;4.466;2022-12-26T02:59:07;22.88;;;13.52;;
66272;SDS011;58450;52.150;4.466;2022-12-26T03:02:00;21.25;;;12.80;;
66272;SDS011;58450;52.150;4.466;2022-12-26T03:05:00;21.92;;;13.25;;
66272;SDS011;58450;52.150;4.466;2022-12-26T03:07:47;21.42;;;13.25;;
66272;SDS011;58450;52.150;4.466;2022-12-26T03:10:34;21.90;;;13.43;;
66272;SDS011;58450;52.150;4.466;2022-12-26T03:13:21;19.25;;;12.70;;
66272;SDS011;58450;52.150;4.466;2022-12-26T03:15:58;23.08;;;13.10;;
66272;SDS011;58450;52.150;4.466;2022-12-26T03:18:48;19.63;;;12.63;;
66272;SDS011;58450;52.150;4.466;2022-12-26T03:21:24;23.77;;;13.13;;
66272;SDS011;58450;52.150;4.466;2022-12-26T03:23:59;21.38;;;13.02;;
66272;SDS011;58450;52.150;4.466;2022-12-26T03:26:27;18.67;;;11.45;;
66272;SDS011;58450;52.150;4.466;2022-12-26T03:29:08;18.55;;;11.68;;
66272;SDS011;58450;52.150;4.466;2022-12-26T03:31:57;19.30;;;11.68;;
66272;SDS011;58450;52.150;4.466;2022-12-26T03:34:26;17.92;;;11.30;;
66272;SDS011;58450;52.150;4.466;2022-12-26T03:36:56;18.13;;;10.48;;
66272;SDS011;58450;52.150;4.466;2022-12-26T03:39:46;17.67;;;10.52;;
66272;SDS011;58450;52.150;4.466;2022-12-26T03:42:47;17.33;;;10.27;;
66272;SDS011;58450;52.150;4.466;2022-12-26T03:45:43;16.42;;;10.02;;
66272;SDS011;58450;52.150;4.466;2022-12-26T03:48:40;13.88;;;9.00;;
66272;SDS011;58450;52.150;4.466;2022-12-26T03:51:37;13.57;;;9.15;;
66272;SDS011;58450;52.150;4.466;2022-12-26T03:54:31;13.95;;;9.20;;
66272;SDS011;58450;52.150;4.466;2022-12-26T03:57:26;13.80;;;8.77;;
66272;SDS011;58450;52.150;4.466;2022-12-26T04:00:20;13.82;;;8.38;;
66272;SDS011;58450;52.150;4.466;2022-12-26T04:03:08;14.10;;;8.88;;
66272;SDS011;58450;52.150;4.466;2022-12-26T04:05:57;13.93;;;8.00;;
66272;SDS011;58450;52.150;4.466;2022-12-26T04:08:49;12.68;;;7.80;;
66272;SDS011;58450;52.150;4.466;2022-12-26T04:11:55;12.50;;;7.50;;
66272;SDS011;58450;52.150;4.466;2022-12-26T04:14:45;12.88;;;7.10;;
66272;SDS011;58450;52.150;4.466;2022-12-26T04:17:39;13.13;;;6.50;;
66272;SDS011;58450;52.150;4.466;2022-12-26T04:20:40;10.40;;;5.85;;
66272;SDS011;58450;52.150;4.466;2022-12-26T04:23:15;12.75;;;6.55;;
66272;SDS011;58450;52.150;4.466;2022-12-26T04:26:07;9.68;;;6.05;;
66272;SDS011;58450;52.150;4.466;2022-12-26T04:29:02;12.23;;;6.30;;
66272;SDS011;58450;52.150;4.466;2022-12-26T04:31:48;10.73;;;5.28;;
66272;SDS011;58450;52.150;4.466;2022-12-26T04:34:44;11.27;;;5.70;;
66272;SDS011;58450;52.150;4.466;2022-12-26T04:37:38;9.88;;;5.07;;
66272;SDS011;58450;52.150;4.466;2022-12-26T04:40:29;8.43;;;4.57;;
66272;SDS011;58450;52.150;4.466;2022-12-26T04:43:22;7.45;;;4.35;;
66272;SDS011;58450;52.150;4.466;2022-12-26T04:46:09;9.40;;;4.70;;
66272;SDS011;58450;52.150;4.466;2022-12-26T04:48:40;7.82;;;4.40;;
66272;SDS011;58450;52.150;4.466;2022-12-26T04:51:28;9.20;;;4.30;;
66272;SDS011;58450;52.150;4.466;2022-12-26T04:53:56;9.13;;;4.53;;
66272;SDS011;58450;52.150;4.466;2022-12-26T04:56:23;10.10;;;4.03;;
66272;SDS011;58450;52.150;4.466;2022-12-26T04:58:51;7.78;;;3.63;;
66272;SDS011;58450;52.150;4.466;2022-12-26T05:01:20;8.38;;;4.05;;
66272;SDS011;58450;52.150;4.466;2022-12-26T05:04:05;8.18;;;3.97;;
66272;SDS011;58450;52.150;4.466;2022-12-26T05:06:52;7.85;;;3.38;;
66272;SDS011;58450;52.150;4.466;2022-12-26T05:09:37;6.82;;;3.35;;
66272;SDS011;58450;52.150;4.466;2022-12-26T05:12:05;10.07;;;3.70;;
66272;SDS011;58450;52.150;4.466;2022-12-26T05:14:36;9.30;;;3.40;;
66272;SDS011;58450;52.150;4.466;2022-12-26T05:17:05;9.43;;;3.30;;
66272;SDS011;58450;52.150;4.466;2022-12-26T05:19:47;8.18;;;3.20;;
66272;SDS011;58450;52.150;4.466;2022-12-26T05:22:33;6.88;;;2.88;;
66272;SDS011;58450;52.150;4.466;2022-12-26T05:25:24;5.90;;;2.65;;
66272;SDS011;58450;52.150;4.466;2022-12-26T05:28:13;9.55;;;3.55;;
66272;SDS011;58450;52.150;4.466;2022-12-26T05:31:00;5.07;;;2.67;;
66272;SDS011;58450;52.150;4.466;2022-12-26T05:33:30;6.97;;;3.08;;
66272;SDS011;58450;52.150;4.466;2022-12-26T05:36:16;6.95;;;2.70;;
66272;SDS011;58450;52.150;4.466;2022-12-26T05:38:48;6.28;;;2.78;;
66272;SDS011;58450;52.150;4.466;2022-12-26T05:41:17;6.60;;;2.58;;
66272;SDS011;58450;52.150;4.466;2022-12-26T05:43:45;5.82;;;2.70;;
66272;SDS011;58450;52.150;4.466;2022-12-26T05:46:12;6.97;;;2.38;;
66272;SDS011;58450;52.150;4.466;2022-12-26T05:48:42;6.43;;;2.63;;
66272;SDS011;58450;52.150;4.466;2022-12-26T05:51:09;8.40;;;2.63;;
66272;SDS011;58450;52.150;4.466;2022-12-26T05:53:37;7.88;;;2.72;;
66272;SDS011;58450;52.150;4.466;2022-12-26T05:56:05;7.82;;;2.97;;
66272;SDS011;58450;52.150;4.466;2022-12-26T05:58:36;5.75;;;2.33;;
66272;SDS011;58450;52.150;4.466;2022-12-26T06:01:05;7.10;;;2.70;;
66272;SDS011;58450;52.150;4.466;2022-12-26T06:03:36;6.00;;;2.63;;
66272;SDS011;58450;52.150;4.466;2022-12-26T06:06:06;5.72;;;2.75;;
66272;SDS011;58450;52.150;4.466;2022-12-26T06:08:33;7.22;;;2.80;;
66272;SDS011;58450;52.150;4.466;2022-12-26T06:11:02;6.35;;;3.03;;
66272;SDS011;58450;52.150;4.466;2022-12-26T06:13:32;5.85;;;2.83;;
66272;SDS011;58450;52.150;4.466;2022-12-26T06:16:02;7.32;;;3.08;;
66272;SDS011;58450;52.150;4.466;2022-12-26T06:18:31;8.57;;;3.33;;
66272;SDS011;58450;52.150;4.466;2022-12-26T06:21:02;8.20;;;3.40;;
66272;SDS011;58450;52.150;4.466;2022-12-26T06:23:32;9.75;;;3.70;;
66272;SDS011;58450;52.150;4.466;2022-12-26T06:26:00;7.82;;;3.60;;
66272;SDS011;58450;52.150;4.466;2022-12-26T06:28:27;7.85;;;3.30;;
66272;SDS011;58450;52.150;4.466;2022-12-26T06:31:00;8.32;;;2.95;;
66272;SDS011;58450;52.150;4.466;2022-12-26T06:33:29;6.90;;;3.00;;
66272;SDS011;58450;52.150;4.466;2022-12-26T06:36:01;7.95;;;3.10;;
66272;SDS011;58450;52.150;4.466;2022-12-26T06:40:59;8.93;;;3.28;;
66272;SDS011;58450;52.150;4.466;2022-12-26T06:43:27;8.45;;;3.15;;
66272;SDS011;58450;52.150;4.466;2022-12-26T06:45:55;9.80;;;3.35;;
66272;SDS011;58450;52.150;4.466;2022-12-26T06:48:23;9.23;;;3.03;;
66272;SDS011;58450;52.150;4.466;2022-12-26T06:50:52;13.05;;;3.55;;
66272;SDS011;58450;52.150;4.466;2022-12-26T06:53:20;7.85;;;2.92;;
66272;SDS011;58450;52.150;4.466;2022-12-26T06:55:50;7.63;;;3.05;;
66272;SDS011;58450;52.150;4.466;2022-12-26T06:58:18;6.82;;;2.75;;
66272;SDS011;58450;52.150;4.466;2022-12-26T07:00:46;5.95;;;2.50;;
66272;SDS011;58450;52.150;4.466;2022-12-26T07:03:13;8.48;;;2.85;;
66272;SDS011;58450;52.150;4.466;2022-12-26T07:05:41;7.75;;;2.60;;
66272;SDS011;58450;52.150;4.466;2022-12-26T07:08:08;8.85;;;2.80;;
66272;SDS011;58450;52.150;4.466;2022-12-26T07:10:36;8.35;;;2.72;;
66272;SDS011;58450;52.150;4.466;2022-12-26T07:13:05;8.85;;;3.15;;
66272;SDS011;58450;52.150;4.466;2022-12-26T07:15:32;7.97;;;2.83;;
66272;SDS011;58450;52.150;4.466;2022-12-26T07:18:00;10.07;;;2.85;;
66272;SDS011;58450;52.150;4.466;2022-12-26T07:20:27;13.23;;;3.03;;
66272;SDS011;58450;52.150;4.466;2022-12-26T07:22:55;12.82;;;2.95;;
66272;SDS011;58450;52.150;4.466;2022-12-26T07:25:22;12.57;;;2.75;;
66272;SDS011;58450;52.150;4.466;2022-12-26T07:27:51;7.68;;;2.80;;
66272;SDS011;58450;52.150;4.466;2022-12-26T07:30:21;7.30;;;2.85;;
66272;SDS011;58450;52.150;4.466;2022-12-26T07:32:48;8.57;;;3.17;;
66272;SDS011;58450;52.150;4.466;2022-12-26T07:35:16;6.30;;;2.72;;
66272;SDS011;58450;52.150;4.466;2022-12-26T07:37:43;5.85;;;2.95;;
66272;SDS011;58450;52.150;4.466;2022-12-26T07:40:11;9.25;;;3.17;;
66272;SDS011;58450;52.150;4.466;2022-12-26T07:42:39;9.20;;;3.30;;
66272;SDS011;58450;52.150;4.466;2022-12-26T07:45:07;8.70;;;2.85;;
66272;SDS011;58450;52.150;4.466;2022-12-26T07:47:36;6.88;;;2.80;;
66272;SDS011;58450;52.150;4.466;2022-12-26T07:50:04;8.52;;;2.80;;
66272;SDS011;58450;52.150;4.466;2022-12-26T07:52:33;9.63;;;2.50;;
66272;SDS011;58450;52.150;4.466;2022-12-26T07:55:00;8.68;;;2.45;;
66272;SDS011;58450;52.150;4.466;2022-12-26T07:57:29;8.93;;;2.58;;
66272;SDS011;58450;52.150;4.466;2022-12-26T07:59:56;9.38;;;2.35;;
66272;SDS011;58450;52.150;4.466;2022-12-26T08:02:24;11.27;;;2.53;;
66272;SDS011;58450;52.150;4.466;2022-12-26T08:04:53;6.85;;;2.10;;
66272;SDS011;58450;52.150;4.466;2022-12-26T08:07:20;9.68;;;2.30;;
66272;SDS011;58450;52.150;4.466;2022-12-26T08:09:48;10.27;;;2.38;;
66272;SDS011;58450;52.150;4.466;2022-12-26T08:12:15;9.82;;;2.05;;
66272;SDS011;58450;52.150;4.466;2022-12-26T08:14:46;8.80;;;2.33;;
66272;SDS011;58450;52.150;4.466;2022-12-26T08:17:14;11.82;;;2.50;;
66272;SDS011;58450;52.150;4.466;2022-12-26T08:19:42;10.98;;;2.30;;
66272;SDS011;58450;52.150;4.466;2022-12-26T08:22:11;9.23;;;2.05;;
66272;SDS011;58450;52.150;4.466;2022-12-26T08:24:38;14.63;;;2.22;;
66272;SDS011;58450;52.150;4.466;2022-12-26T08:27:06;7.97;;;1.70;;
66272;SDS011;58450;52.150;4.466;2022-12-26T08:29:33;12.38;;;2.17;;
66272;SDS011;58450;52.150;4.466;2022-12-26T08:32:01;12.93;;;2.08;;
66272;SDS011;58450;52.150;4.466;2022-12-26T08:34:30;14.50;;;2.10;;
66272;SDS011;58450;52.150;4.466;2022-12-26T08:36:59;14.75;;;1.85;;
66272;SDS011;58450;52.150;4.466;2022-12-26T08:39:28;11.60;;;1.88;;
66272;SDS011;58450;52.150;4.466;2022-12-26T08:41:55;13.00;;;2.00;;
66272;SDS011;58450;52.150;4.466;2022-12-26T08:44:23;22.95;;;3.33;;
66272;SDS011;58450;52.150;4.466;2022-12-26T08:46:51;15.73;;;2.20;;
66272;SDS011;58450;52.150;4.466;2022-12-26T08:49:18;14.70;;;2.40;;
66272;SDS011;58450;52.150;4.466;2022-12-26T08:51:46;10.70;;;2.50;;
66272;SDS011;58450;52.150;4.466;2022-12-26T08:54:14;15.40;;;2.95;;
66272;SDS011;58450;52.150;4.466;2022-12-26T08:56:42;14.80;;;2.90;;
66272;SDS011;58450;52.150;4.466;2022-12-26T08:59:10;14.98;;;3.00;;
66272;SDS011;58450;52.150;4.466;2022-12-26T09:01:37;12.10;;;2.35;;
66272;SDS011;58450;52.150;4.466;2022-12-26T09:04:06;12.93;;;2.38;;
66272;SDS011;58450;52.150;4.466;2022-12-26T09:06:35;11.55;;;1.98;;
66272;SDS011;58450;52.150;4.466;2022-12-26T09:09:05;11.23;;;2.00;;
66272;SDS011;58450;52.150;4.466;2022-12-26T09:11:36;12.63;;;2.10;;
66272;SDS011;58450;52.150;4.466;2022-12-26T09:14:06;11.57;;;2.15;;
66272;SDS011;58450;52.150;4.466;2022-12-26T09:16:36;6.18;;;1.48;;
66272;SDS011;58450;52.150;4.466;2022-12-26T09:19:08;14.02;;;2.13;;
66272;SDS011;58450;52.150;4.466;2022-12-26T09:21:39;12.18;;;2.05;;
66272;SDS011;58450;52.150;4.466;2022-12-26T09:24:09;10.25;;;2.08;;
66272;SDS011;58450;52.150;4.466;2022-12-26T09:26:39;14.68;;;2.80;;
66272;SDS011;58450;52.150;4.466;2022-12-26T09:29:09;16.92;;;2.53;;
66272;SDS011;58450;52.150;4.466;2022-12-26T09:31:37;15.60;;;2.38;;
66272;SDS011;58450;52.150;4.466;2022-12-26T09:34:06;13.50;;;2.35;;
66272;SDS011;58450;52.150;4.466;2022-12-26T09:36:34;12.02;;;2.22;;
66272;SDS011;58450;52.150;4.466;2022-12-26T09:39:04;12.00;;;2.03;;
66272;SDS011;58450;52.150;4.466;2022-12-26T09:41:37;9.63;;;2.00;;
66272;SDS011;58450;52.150;4.466;2022-12-26T09:44:27;7.78;;;1.80;;
66272;SDS011;58450;52.150;4.466;2022-12-26T09:47:10;9.68;;;1.42;;
66272;SDS011;58450;52.150;4.466;2022-12-26T09:49:55;8.35;;;1.48;;
66272;SDS011;58450;52.150;4.466;2022-12-26T09:52:32;10.57;;;1.60;;
66272;SDS011;58450;52.150;4.466;2022-12-26T09:55:15;8.10;;;1.50;;
66272;SDS011;58450;52.150;4.466;2022-12-26T09:57:56;11.52;;;1.73;;
66272;SDS011;58450;52.150;4.466;2022-12-26T10:00:32;7.53;;;1.27;;
66272;SDS011;58450;52.150;4.466;2022-12-26T10:03:09;6.03;;;1.27;;
66272;SDS011;58450;52.150;4.466;2022-12-26T10:05:39;6.75;;;1.17;;
66272;SDS011;58450;52.150;4.466;2022-12-26T10:08:30;10.13;;;1.48;;
66272;SDS011;58450;52.150;4.466;2022-12-26T10:11:20;6.93;;;1.65;;
66272;SDS011;58450;52.150;4.466;2022-12-26T10:14:02;5.78;;;1.35;;
66272;SDS011;58450;52.150;4.466;2022-12-26T10:16:44;8.63;;;1.63;;
66272;SDS011;58450;52.150;4.466;2022-12-26T10:19:28;7.90;;;1.30;;
66272;SDS011;58450;52.150;4.466;2022-12-26T10:22:13;7.97;;;1.30;;
66272;SDS011;58450;52.150;4.466;2022-12-26T10:25:11;11.10;;;1.73;;
66272;SDS011;58450;52.150;4.466;2022-12-26T10:27:47;7.70;;;1.38;;
66272;SDS011;58450;52.150;4.466;2022-12-26T10:30:19;9.77;;;1.60;;
66272;SDS011;58450;52.150;4.466;2022-12-26T10:32:54;10.68;;;2.05;;
66272;SDS011;58450;52.150;4.466;2022-12-26T10:35:31;7.00;;;1.65;;
66272;SDS011;58450;52.150;4.466;2022-12-26T10:38:08;8.38;;;1.80;;
66272;SDS011;58450;52.150;4.466;2022-12-26T10:40:42;10.65;;;2.00;;
66272;SDS011;58450;52.150;4.466;2022-12-26T10:43:21;9.50;;;1.48;;
66272;SDS011;58450;52.150;4.466;2022-12-26T10:46:02;8.02;;;1.50;;
66272;SDS011;58450;52.150;4.466;2022-12-26T10:48:48;9.38;;;1.70;;
66272;SDS011;58450;52.150;4.466;2022-12-26T10:51:16;8.88;;;1.73;;
66272;SDS011;58450;52.150;4.466;2022-12-26T10:53:45;7.18;;;1.73;;
66272;SDS011;58450;52.150;4.466;2022-12-26T10:56:17;9.23;;;1.45;;
66272;SDS011;58450;52.150;4.466;2022-12-26T10:58:48;7.72;;;1.23;;
66272;SDS011;58450;52.150;4.466;2022-12-26T11:01:32;4.50;;;1.27;;
66272;SDS011;58450;52.150;4.466;2022-12-26T11:04:05;5.28;;;1.10;;
66272;SDS011;58450;52.150;4.466;2022-12-26T11:06:41;6.90;;;1.40;;
66272;SDS011;58450;52.150;4.466;2022-12-26T11:09:21;6.70;;;1.25;;
66272;SDS011;58450;52.150;4.466;2022-12-26T11:12:01;3.40;;;1.10;;
66272;SDS011;58450;52.150;4.466;2022-12-26T11:14:32;5.07;;;1.10;;
66272;SDS011;58450;52.150;4.466;2022-12-26T11:17:05;5.85;;;1.20;;
66272;SDS011;58450;52.150;4.466;2022-12-26T11:19:39;5.53;;;1.30;;
66272;SDS011;58450;52.150;4.466;2022-12-26T11:22:22;4.07;;;0.98;;
66272;SDS011;58450;52.150;4.466;2022-12-26T11:25:01;7.78;;;1.00;;
66272;SDS011;58450;52.150;4.466;2022-12-26T11:27:51;5.50;;;1.10;;
66272;SDS011;58450;52.150;4.466;2022-12-26T11:30:25;4.10;;;1.00;;
66272;SDS011;58450;52.150;4.466;2022-12-26T11:35:54;6.28;;;1.38;;
66272;SDS011;58450;52.150;4.466;2022-12-26T11:38:39;4.70;;;1.45;;
66272;SDS011;58450;52.150;4.466;2022-12-26T11:41:16;7.60;;;1.50;;
66272;SDS011;58450;52.150;4.466;2022-12-26T11:44:02;6.32;;;1.10;;
66272;SDS011;58450;52.150;4.466;2022-12-26T11:46:43;5.72;;;1.48;;
66272;SDS011;58450;52.150;4.466;2022-12-26T11:49:20;7.72;;;1.08;;
66272;SDS011;58450;52.150;4.466;2022-12-26T11:51:56;9.15;;;1.45;;
66272;SDS011;58450;52.150;4.466;2022-12-26T11:54:30;6.28;;;1.38;;
66272;SDS011;58450;52.150;4.466;2022-12-26T11:57:02;6.57;;;1.58;;
66272;SDS011;58450;52.150;4.466;2022-12-26T11:59:45;6.25;;;1.15;;
66272;SDS011;58450;52.150;4.466;2022-12-26T12:02:24;4.72;;;1.40;;
66272;SDS011;58450;52.150;4.466;2022-12-26T12:04:56;6.30;;;1.20;;
66272;SDS011;58450;52.150;4.466;2022-12-26T12:07:42;6.10;;;1.30;;
66272;SDS011;58450;52.150;4.466;2022-12-26T12:13:37;4.28;;;1.23;;
66272;SDS011;58450;52.150;4.466;2022-12-26T12:19:15;7.18;;;1.58;;
66272;SDS011;58450;52.150;4.466;2022-12-26T12:22:01;10.52;;;1.52;;
66272;SDS011;58450;52.150;4.466;2022-12-26T12:24:51;9.50;;;1.73;;
66272;SDS011;58450;52.150;4.466;2022-12-26T12:27:34;5.15;;;1.00;;
66272;SDS011;58450;52.150;4.466;2022-12-26T12:30:14;5.53;;;1.20;;
66272;SDS011;58450;52.150;4.466;2022-12-26T12:32:50;7.32;;;1.23;;
66272;SDS011;58450;52.150;4.466;2022-12-26T12:35:41;4.43;;;1.10;;
66272;SDS011;58450;52.150;4.466;2022-12-26T12:38:29;8.93;;;1.30;;
66272;SDS011;58450;52.150;4.466;2022-12-26T12:41:08;7.20;;;1.27;;
66272;SDS011;58450;52.150;4.466;2022-12-26T12:43:52;8.18;;;1.30;;
66272;SDS011;58450;52.150;4.466;2022-12-26T12:46:31;9.40;;;1.42;;
66272;SDS011;58450;52.150;4.466;2022-12-26T12:49:18;10.85;;;1.70;;
66272;SDS011;58450;52.150;4.466;2022-12-26T12:52:02;7.82;;;1.50;;
66272;SDS011;58450;52.150;4.466;2022-12-26T12:55:03;6.35;;;1.45;;
66272;SDS011;58450;52.150;4.466;2022-12-26T12:58:06;6.50;;;1.25;;
66272;SDS011;58450;52.150;4.466;2022-12-26T13:00:50;4.38;;;1.02;;
66272;SDS011;58450;52.150;4.466;2022-12-26T13:03:24;5.68;;;1.10;;
66272;SDS011;58450;52.150;4.466;2022-12-26T13:06:02;7.50;;;1.10;;
66272;SDS011;58450;52.150;4.466;2022-12-26T13:08:38;7.50;;;1.60;;
66272;SDS011;58450;52.150;4.466;2022-12-26T13:11:14;5.75;;;1.58;;
66272;SDS011;58450;52.150;4.466;2022-12-26T13:13:51;2.88;;;0.85;;
66272;SDS011;58450;52.150;4.466;2022-12-26T13:16:27;4.47;;;1.13;;
66272;SDS011;58450;52.150;4.466;2022-12-26T13:19:00;4.43;;;1.30;;
66272;SDS011;58450;52.150;4.466;2022-12-26T13:21:33;6.20;;;1.20;;
66272;SDS011;58450;52.150;4.466;2022-12-26T13:24:10;7.22;;;1.40;;
66272;SDS011;58450;52.150;4.466;2022-12-26T13:26:51;5.53;;;1.20;;
66272;SDS011;58450;52.150;4.466;2022-12-26T13:29:35;4.72;;;1.17;;
66272;SDS011;58450;52.150;4.466;2022-12-26T13:32:13;8.07;;;1.15;;
66272;SDS011;58450;52.150;4.466;2022-12-26T13:34:47;6.72;;;1.00;;
66272;SDS011;58450;52.150;4.466;2022-12-26T13:40:28;6.13;;;1.00;;
66272;SDS011;58450;52.150;4.466;2022-12-26T13:42:59;4.57;;;1.05;;
66272;SDS011;58450;52.150;4.466;2022-12-26T13:45:54;7.88;;;1.23;;
66272;SDS011;58450;52.150;4.466;2022-12-26T13:51:40;5.00;;;0.93;;
66272;SDS011;58450;52.150;4.466;2022-12-26T13:54:20;7.28;;;1.20;;
66272;SDS011;58450;52.150;4.466;2022-12-26T13:56:55;3.25;;;1.00;;
66272;SDS011;58450;52.150;4.466;2022-12-26T13:59:40;8.55;;;1.60;;
66272;SDS011;58450;52.150;4.466;2022-12-26T14:05:50;4.07;;;1.10;;
66272;SDS011;58450;52.150;4.466;2022-12-26T14:08:39;6.25;;;1.30;;
66272;SDS011;58450;52.150;4.466;2022-12-26T14:11:27;6.05;;;1.23;;
66272;SDS011;58450;52.150;4.466;2022-12-26T14:14:17;7.88;;;1.30;;
66272;SDS011;58450;52.150;4.466;2022-12-26T14:17:13;6.72;;;1.20;;
66272;SDS011;58450;52.150;4.466;2022-12-26T14:19:56;5.05;;;1.08;;
66272;SDS011;58450;52.150;4.466;2022-12-26T14:22:44;4.95;;;1.02;;
66272;SDS011;58450;52.150;4.466;2022-12-26T14:25:26;8.43;;;1.40;;
66272;SDS011;58450;52.150;4.466;2022-12-26T14:28:08;7.20;;;1.15;;
66272;SDS011;58450;52.150;4.466;2022-12-26T14:30:51;8.05;;;1.60;;
66272;SDS011;58450;52.150;4.466;2022-12-26T14:33:37;5.72;;;1.38;;
66272;SDS011;58450;52.150;4.466;2022-12-26T14:36:20;7.35;;;1.48;;
66272;SDS011;58450;52.150;4.466;2022-12-26T14:39:03;4.95;;;1.00;;
66272;SDS011;58450;52.150;4.466;2022-12-26T14:51:27;4.57;;;1.08;;
66272;SDS011;58450;52.150;4.466;2022-12-26T15:00:23;5.53;;;1.35;;
66272;SDS011;58450;52.150;4.466;2022-12-26T15:06:20;5.63;;;1.30;;
66272;SDS011;58450;52.150;4.466;2022-12-26T15:09:27;9.70;;;1.58;;
66272;SDS011;58450;52.150;4.466;2022-12-26T15:12:28;9.75;;;1.58;;
66272;SDS011;58450;52.150;4.466;2022-12-26T15:15:30;10.10;;;1.70;;
66272;SDS011;58450;52.150;4.466;2022-12-26T15:21:21;8.07;;;1.30;;
66272;SDS011;58450;52.150;4.466;2022-12-26T15:24:22;10.52;;;1.95;;
66272;SDS011;58450;52.150;4.466;2022-12-26T15:27:29;10.13;;;1.67;;
66272;SDS011;58450;52.150;4.466;2022-12-26T15:30:36;9.43;;;1.50;;
66272;SDS011;58450;52.150;4.466;2022-12-26T15:33:28;10.38;;;1.83;;
66272;SDS011;58450;52.150;4.466;2022-12-26T15:36:05;10.85;;;2.05;;
66272;SDS011;58450;52.150;4.466;2022-12-26T15:38:50;9.27;;;1.55;;
66272;SDS011;58450;52.150;4.466;2022-12-26T15:41:30;10.32;;;1.80;;
66272;SDS011;58450;52.150;4.466;2022-12-26T15:44:13;8.90;;;1.70;;
66272;SDS011;58450;52.150;4.466;2022-12-26T15:46:56;9.68;;;1.90;;
66272;SDS011;58450;52.150;4.466;2022-12-26T15:49:55;6.45;;;1.30;;
66272;SDS011;58450;52.150;4.466;2022-12-26T15:52:42;9.02;;;1.50;;
66272;SDS011;58450;52.150;4.466;2022-12-26T15:55:29;7.35;;;1.50;;
66272;SDS011;58450;52.150;4.466;2022-12-26T15:58:17;8.60;;;1.70;;
66272;SDS011;58450;52.150;4.466;2022-12-26T16:01:07;5.80;;;1.40;;
66272;SDS011;58450;52.150;4.466;2022-12-26T16:03:38;7.63;;;1.33;;
66272;SDS011;58450;52.150;4.466;2022-12-26T16:06:22;7.43;;;2.10;;
66272;SDS011;58450;52.150;4.466;2022-12-26T16:09:17;6.55;;;1.45;;
66272;SDS011;58450;52.150;4.466;2022-12-26T16:12:15;6.90;;;1.33;;
66272;SDS011;58450;52.150;4.466;2022-12-26T16:14:57;8.40;;;1.73;;
66272;SDS011;58450;52.150;4.466;2022-12-26T16:17:29;7.45;;;1.95;;
66272;SDS011;58450;52.150;4.466;2022-12-26T16:19:57;6.78;;;1.60;;
66272;SDS011;58450;52.150;4.466;2022-12-26T16:22:27;10.07;;;1.90;;
66272;SDS011;58450;52.150;4.466;2022-12-26T16:25:12;9.10;;;1.75;;
66272;SDS011;58450;52.150;4.466;2022-12-26T16:27:44;10.18;;;1.90;;